EJU5MK LIBR-LGKR
Flight info
| Callsign | EJU5MK |
|---|---|
| Flight time | 0h 26m |
| Altitude | 15000 |
| Route | ORSOM DCT TIGRA |
| Aircraft | A320/M-SDE3FGHIRWY/LB1 |
Departure
| Time | 2026-04-18 09:21 |
|---|---|
| Airport | Brindisi Airport (LIBR) |
Arrival
| Time | 2026-04-18 09:47 |
|---|---|
| Airport | Corfu Ioannis Kapodistrias International Airport (LGKR) |
| Time | Latitude | Longitude | Altitude | Speed | Heading |
|---|---|---|---|---|---|
| 2026-04-18 08:52 | 40.65760 | 17.94019 | 42 ft | 0 kts | 322° |
| 2026-04-18 09:11 | 40.65758 | 17.94021 | 44 ft | 3 kts | 322° |
| 2026-04-18 09:11 | 40.65737 | 17.94041 | 43 ft | 4 kts | 325° |
| 2026-04-18 09:11 | 40.65714 | 17.94061 | 44 ft | 4 kts | 330° |
| 2026-04-18 09:11 | 40.65690 | 17.94076 | 43 ft | 4 kts | 344° |
| 2026-04-18 09:12 | 40.65666 | 17.94079 | 40 ft | 4 kts | 31° |
| 2026-04-18 09:12 | 40.65657 | 17.94070 | 40 ft | 1 kts | 52° |
| 2026-04-18 09:12 | 40.65657 | 17.94069 | 40 ft | 0 kts | 52° |
| 2026-04-18 09:17 | 40.65703 | 17.94148 | 44 ft | 16 kts | 52° |
| 2026-04-18 09:17 | 40.65771 | 17.94262 | 44 ft | 16 kts | 52° |
| 2026-04-18 09:18 | 40.65839 | 17.94380 | 43 ft | 17 kts | 53° |
| 2026-04-18 09:18 | 40.65914 | 17.94509 | 40 ft | 20 kts | 52° |
| 2026-04-18 09:18 | 40.66005 | 17.94660 | 42 ft | 17 kts | 51° |
| 2026-04-18 09:18 | 40.66001 | 17.94785 | 43 ft | 15 kts | 136° |
| 2026-04-18 09:19 | 40.65925 | 17.94875 | 42 ft | 15 kts | 138° |
| 2026-04-18 09:19 | 40.65838 | 17.94980 | 44 ft | 17 kts | 136° |
| 2026-04-18 09:19 | 40.65756 | 17.95080 | 44 ft | 15 kts | 137° |
| 2026-04-18 09:19 | 40.65669 | 17.95138 | 43 ft | 14 kts | 185° |
| 2026-04-18 09:20 | 40.65604 | 17.95048 | 41 ft | 16 kts | 259° |
| 2026-04-18 09:20 | 40.65716 | 17.94842 | 42 ft | 54 kts | 321° |
| 2026-04-18 09:20 | 40.66156 | 17.94304 | 40 ft | 115 kts | 317° |
| 2026-04-18 09:20 | 40.66839 | 17.93455 | 245 ft | 146 kts | 316° |
| 2026-04-18 09:21 | 40.67586 | 17.92487 | 807 ft | 154 kts | 318° |
| 2026-04-18 09:21 | 40.68438 | 17.91465 | 1294 ft | 176 kts | 325° |
| 2026-04-18 09:21 | 40.69517 | 17.90665 | 1830 ft | 182 kts | 348° |
| 2026-04-18 09:21 | 40.70785 | 17.90525 | 2454 ft | 186 kts | 12° |
| 2026-04-18 09:22 | 40.71971 | 17.91232 | 3057 ft | 194 kts | 43° |
| 2026-04-18 09:22 | 40.72683 | 17.92796 | 3650 ft | 212 kts | 73° |
| 2026-04-18 09:22 | 40.72642 | 17.94807 | 4248 ft | 233 kts | 101° |
| 2026-04-18 09:22 | 40.71973 | 17.96840 | 4864 ft | 252 kts | 114° |
| 2026-04-18 09:23 | 40.71088 | 17.98955 | 5346 ft | 273 kts | 115° |
| 2026-04-18 09:23 | 40.70167 | 18.01185 | 6119 ft | 280 kts | 113° |
| 2026-04-18 09:23 | 40.69276 | 18.03484 | 6952 ft | 284 kts | 111° |
| 2026-04-18 09:23 | 40.68430 | 18.05820 | 7794 ft | 287 kts | 111° |
| 2026-04-18 09:24 | 40.67599 | 18.08230 | 8658 ft | 290 kts | 111° |
| 2026-04-18 09:24 | 40.66786 | 18.10671 | 9535 ft | 292 kts | 110° |
| 2026-04-18 09:24 | 40.65978 | 18.13149 | 10260 ft | 300 kts | 110° |
| 2026-04-18 09:24 | 40.65132 | 18.15776 | 10511 ft | 324 kts | 109° |
| 2026-04-18 09:25 | 40.64221 | 18.18607 | 10731 ft | 347 kts | 109° |
| 2026-04-18 09:25 | 40.63258 | 18.21585 | 11230 ft | 358 kts | 111° |
| 2026-04-18 09:25 | 40.62267 | 18.24622 | 11862 ft | 364 kts | 110° |
| 2026-04-18 09:25 | 40.61188 | 18.27668 | 12495 ft | 372 kts | 117° |
| 2026-04-18 09:26 | 40.59682 | 18.30485 | 13143 ft | 381 kts | 129° |
| 2026-04-18 09:26 | 40.57810 | 18.32982 | 13820 ft | 386 kts | 134° |
| 2026-04-18 09:26 | 40.55883 | 18.35462 | 14425 ft | 390 kts | 134° |
| 2026-04-18 09:26 | 40.53935 | 18.37976 | 14843 ft | 393 kts | 134° |
| 2026-04-18 09:27 | 40.51979 | 18.40504 | 14966 ft | 397 kts | 134° |
| 2026-04-18 09:27 | 40.49964 | 18.43122 | 15012 ft | 415 kts | 134° |
| 2026-04-18 09:27 | 40.47919 | 18.45781 | 14978 ft | 421 kts | 134° |
| 2026-04-18 09:27 | 40.45834 | 18.48484 | 14984 ft | 422 kts | 134° |
| 2026-04-18 09:28 | 40.43737 | 18.51197 | 14984 ft | 422 kts | 134° |
| 2026-04-18 09:28 | 40.41643 | 18.53901 | 14989 ft | 423 kts | 134° |
| 2026-04-18 09:28 | 40.39544 | 18.56605 | 14990 ft | 423 kts | 134° |
| 2026-04-18 09:28 | 40.37451 | 18.59303 | 14977 ft | 422 kts | 134° |
| 2026-04-18 09:29 | 40.35356 | 18.62004 | 14979 ft | 422 kts | 134° |
| 2026-04-18 09:29 | 40.33258 | 18.64707 | 14977 ft | 422 kts | 134° |
| 2026-04-18 09:29 | 40.31161 | 18.67405 | 14975 ft | 423 kts | 134° |
| 2026-04-18 09:29 | 40.29064 | 18.70102 | 14976 ft | 423 kts | 134° |
| 2026-04-18 09:30 | 40.26959 | 18.72804 | 14965 ft | 423 kts | 134° |
| 2026-04-18 09:30 | 40.24860 | 18.75497 | 14966 ft | 423 kts | 134° |
| 2026-04-18 09:30 | 40.22786 | 18.78158 | 14983 ft | 423 kts | 134° |
| 2026-04-18 09:30 | 40.20684 | 18.80847 | 14974 ft | 422 kts | 134° |
| 2026-04-18 09:31 | 40.18580 | 18.83533 | 14973 ft | 422 kts | 134° |
| 2026-04-18 09:31 | 40.16482 | 18.86214 | 14963 ft | 422 kts | 134° |
| 2026-04-18 09:31 | 40.14384 | 18.88898 | 14964 ft | 422 kts | 134° |
| 2026-04-18 09:31 | 40.12301 | 18.91570 | 14953 ft | 412 kts | 134° |
| 2026-04-18 09:32 | 40.10300 | 18.94157 | 14958 ft | 398 kts | 134° |
| 2026-04-18 09:32 | 40.08342 | 18.96686 | 14958 ft | 395 kts | 134° |
| 2026-04-18 09:32 | 40.06391 | 18.99205 | 14953 ft | 394 kts | 134° |
| 2026-04-18 09:32 | 40.04443 | 19.01720 | 14953 ft | 394 kts | 134° |
| 2026-04-18 09:33 | 40.02496 | 19.04236 | 14952 ft | 394 kts | 134° |
| 2026-04-18 09:33 | 40.00550 | 19.06749 | 14950 ft | 394 kts | 134° |
| 2026-04-18 09:33 | 39.98599 | 19.09267 | 14950 ft | 394 kts | 134° |
| 2026-04-18 09:33 | 39.96649 | 19.11783 | 14950 ft | 394 kts | 134° |
| 2026-04-18 09:34 | 39.94698 | 19.14301 | 14936 ft | 395 kts | 134° |
| 2026-04-18 09:34 | 39.92747 | 19.16815 | 14938 ft | 395 kts | 134° |
| 2026-04-18 09:34 | 39.90790 | 19.19333 | 14941 ft | 395 kts | 134° |
| 2026-04-18 09:34 | 39.88836 | 19.21846 | 14928 ft | 395 kts | 134° |
| 2026-04-18 09:35 | 39.86890 | 19.24346 | 14507 ft | 391 kts | 134° |
| 2026-04-18 09:35 | 39.84956 | 19.26830 | 14025 ft | 389 kts | 134° |
| 2026-04-18 09:35 | 39.83033 | 19.29296 | 13541 ft | 387 kts | 134° |
| 2026-04-18 09:35 | 39.81127 | 19.31741 | 13041 ft | 383 kts | 134° |
| 2026-04-18 09:36 | 39.79247 | 19.34165 | 12566 ft | 379 kts | 134° |
| 2026-04-18 09:36 | 39.77404 | 19.36558 | 12097 ft | 374 kts | 134° |
| 2026-04-18 09:36 | 39.75802 | 19.39141 | 11912 ft | 359 kts | 119° |
| 2026-04-18 09:36 | 39.74864 | 19.42057 | 11781 ft | 343 kts | 103° |
| 2026-04-18 09:37 | 39.74261 | 19.44999 | 11646 ft | 331 kts | 102° |
| 2026-04-18 09:37 | 39.73695 | 19.47820 | 11494 ft | 314 kts | 102° |
| 2026-04-18 09:37 | 39.73159 | 19.50518 | 11064 ft | 304 kts | 102° |
| 2026-04-18 09:37 | 39.72640 | 19.53155 | 10506 ft | 299 kts | 103° |
| 2026-04-18 09:38 | 39.72124 | 19.55753 | 9957 ft | 295 kts | 103° |
| 2026-04-18 09:38 | 39.71614 | 19.58318 | 9356 ft | 292 kts | 103° |
| 2026-04-18 09:38 | 39.71108 | 19.60853 | 8729 ft | 289 kts | 103° |
| 2026-04-18 09:38 | 39.70736 | 19.63388 | 8088 ft | 283 kts | 88° |
| 2026-04-18 09:39 | 39.71132 | 19.65833 | 7479 ft | 275 kts | 62° |
| 2026-04-18 09:39 | 39.72266 | 19.67779 | 6858 ft | 269 kts | 37° |
| 2026-04-18 09:39 | 39.73836 | 19.69043 | 6190 ft | 266 kts | 27° |
| 2026-04-18 09:39 | 39.75456 | 19.70193 | 5510 ft | 265 kts | 27° |
| 2026-04-18 09:40 | 39.77071 | 19.71344 | 4830 ft | 264 kts | 27° |
| 2026-04-18 09:40 | 39.78661 | 19.72478 | 4178 ft | 264 kts | 28° |
| 2026-04-18 09:40 | 39.80269 | 19.73627 | 3781 ft | 261 kts | 28° |
| 2026-04-18 09:40 | 39.81831 | 19.74748 | 3712 ft | 250 kts | 28° |
| 2026-04-18 09:41 | 39.83323 | 19.75834 | 3702 ft | 244 kts | 32° |
| 2026-04-18 09:41 | 39.84509 | 19.77367 | 3409 ft | 242 kts | 59° |
| 2026-04-18 09:41 | 39.84975 | 19.79431 | 3217 ft | 236 kts | 88° |
| 2026-04-18 09:41 | 39.84685 | 19.81449 | 3203 ft | 222 kts | 114° |
| 2026-04-18 09:42 | 39.83973 | 19.83164 | 3204 ft | 209 kts | 118° |
| 2026-04-18 09:42 | 39.83287 | 19.84769 | 3206 ft | 198 kts | 118° |
| 2026-04-18 09:42 | 39.82623 | 19.86323 | 3231 ft | 196 kts | 118° |
| 2026-04-18 09:42 | 39.81960 | 19.87868 | 3212 ft | 195 kts | 120° |
| 2026-04-18 09:43 | 39.81134 | 19.89255 | 3207 ft | 195 kts | 134° |
| 2026-04-18 09:43 | 39.80061 | 19.90336 | 3208 ft | 196 kts | 149° |
| 2026-04-18 09:43 | 39.78810 | 19.91041 | 3211 ft | 197 kts | 163° |
| 2026-04-18 09:43 | 39.77456 | 19.91333 | 3212 ft | 198 kts | 174° |
| 2026-04-18 09:44 | 39.76083 | 19.91504 | 3211 ft | 198 kts | 173° |
| 2026-04-18 09:44 | 39.74707 | 19.91625 | 3139 ft | 200 kts | 181° |
| 2026-04-18 09:44 | 39.73323 | 19.91516 | 2859 ft | 198 kts | 183° |
| 2026-04-18 09:44 | 39.71954 | 19.91402 | 2582 ft | 196 kts | 183° |
| 2026-04-18 09:45 | 39.70601 | 19.91289 | 2309 ft | 192 kts | 182° |
| 2026-04-18 09:45 | 39.69302 | 19.91181 | 2029 ft | 182 kts | 183° |
| 2026-04-18 09:45 | 39.68070 | 19.91077 | 1768 ft | 173 kts | 183° |
| 2026-04-18 09:45 | 39.66909 | 19.90968 | 1554 ft | 159 kts | 186° |
| 2026-04-18 09:46 | 39.65856 | 19.90741 | 1313 ft | 150 kts | 192° |
| 2026-04-18 09:46 | 39.64839 | 19.90480 | 1064 ft | 148 kts | 190° |
| 2026-04-18 09:46 | 39.63805 | 19.90349 | 762 ft | 152 kts | 180° |
| 2026-04-18 09:46 | 39.62773 | 19.90556 | 481 ft | 149 kts | 166° |
| 2026-04-18 09:47 | 39.61765 | 19.90816 | 213 ft | 146 kts | 169° |
| 2026-04-18 09:47 | 39.60797 | 19.91057 | 34 ft | 135 kts | 168° |
| 2026-04-18 09:47 | 39.60005 | 19.91264 | 21 ft | 82 kts | 169° |
| 2026-04-18 09:47 | 39.59735 | 19.91345 | 20 ft | 14 kts | 142° |
| 2026-04-18 09:48 | 39.59703 | 19.91336 | 22 ft | 2 kts | 265° |
| 2026-04-18 09:48 | 39.59743 | 19.91328 | 20 ft | 13 kts | 353° |
| 2026-04-18 09:48 | 39.59826 | 19.91308 | 22 ft | 15 kts | 348° |
| 2026-04-18 09:48 | 39.60104 | 19.91237 | 21 ft | 33 kts | 349° |
| 2026-04-18 09:49 | 39.60242 | 19.91201 | 23 ft | 29 kts | 347° |
| 2026-04-18 09:49 | 39.60441 | 19.91151 | 20 ft | 28 kts | 353° |
| 2026-04-18 09:49 | 39.60577 | 19.91197 | 20 ft | 14 kts | 35° |
| 2026-04-18 09:49 | 39.60619 | 19.91297 | 18 ft | 13 kts | 79° |
| 2026-04-18 09:50 | 39.60630 | 19.91371 | 18 ft | 0 kts | 79° |